createdAt,value
2019-05-30T00:02:13.614Z,9.85
2019-05-30T00:04:42.010Z,9.83
2019-05-30T00:07:11.347Z,9.81
2019-05-30T00:09:40.947Z,9.73
2019-05-30T00:12:09.434Z,9.77
2019-05-30T00:14:37.894Z,9.73
2019-05-30T00:17:06.274Z,9.69
2019-05-30T00:19:34.970Z,9.67
2019-05-30T00:22:03.892Z,9.62
2019-05-30T00:24:33.561Z,9.62
2019-05-30T00:27:02.486Z,9.60
2019-05-30T00:29:31.619Z,9.59
2019-05-30T00:32:00.103Z,9.50
2019-05-30T00:34:28.510Z,9.55
2019-05-30T00:36:57.688Z,9.55
2019-05-30T00:39:26.062Z,9.52
2019-05-30T00:41:55.871Z,9.51
2019-05-30T00:44:28.931Z,9.46
2019-05-30T00:46:58.066Z,9.44
2019-05-30T00:49:26.480Z,9.44
2019-05-30T00:51:54.881Z,9.41
2019-05-30T00:54:23.274Z,9.40
2019-05-30T00:56:51.831Z,9.40
2019-05-30T00:59:20.217Z,9.38
2019-05-30T01:01:50.100Z,9.38
2019-05-30T01:04:18.500Z,9.37
2019-05-30T01:06:46.881Z,9.29
2019-05-30T01:09:15.281Z,9.34
2019-05-30T01:11:43.661Z,9.31
2019-05-30T01:14:12.059Z,9.30
2019-05-30T01:16:42.708Z,9.27
2019-05-30T01:19:10.596Z,9.24
2019-05-30T01:21:39.029Z,9.21
2019-05-30T01:24:07.772Z,9.17
2019-05-30T01:26:36.292Z,9.14
2019-05-30T01:29:05.552Z,9.12
2019-05-30T01:31:35.747Z,8.98
2019-05-30T01:34:05.880Z,9.09
2019-05-30T01:36:35.820Z,9.01
2019-05-30T01:39:07.997Z,9.11
2019-05-30T01:41:36.575Z,9.02
2019-05-30T01:44:06.116Z,9.08
2019-05-30T01:46:34.795Z,9.06
2019-05-30T01:49:04.369Z,9.03
2019-05-30T01:51:32.833Z,9.01
2019-05-30T01:54:02.466Z,8.99
2019-05-30T01:56:31.511Z,8.96
2019-05-30T01:59:00.556Z,8.95
2019-05-30T02:01:29.073Z,8.95
2019-05-30T02:03:58.973Z,8.91
2019-05-30T02:06:27.531Z,8.91
2019-05-30T02:09:13.731Z,8.91
2019-05-30T02:11:42.147Z,8.93
2019-05-30T02:14:12.037Z,8.90
2019-05-30T02:16:40.439Z,8.90
2019-05-30T02:19:10.607Z,8.89
2019-05-30T02:21:39.383Z,8.91
2019-05-30T02:24:08.011Z,8.92
2019-05-30T02:26:36.346Z,8.93
2019-05-30T02:29:06.193Z,8.96
2019-05-30T02:31:39.531Z,8.98
2019-05-30T02:34:07.625Z,8.99
2019-05-30T02:36:36.879Z,8.98
2019-05-30T02:39:09.678Z,8.97
2019-05-30T02:41:37.975Z,8.98
2019-05-30T02:44:07.658Z,8.99
2019-05-30T02:46:36.548Z,8.97
2019-05-30T02:49:07.214Z,8.93
2019-05-30T02:51:36.614Z,8.89
2019-05-30T02:54:07.005Z,8.82
2019-05-30T02:56:35.547Z,8.79
2019-05-30T02:59:06.061Z,8.75
2019-05-30T03:01:34.711Z,8.74
2019-05-30T03:04:04.029Z,8.72
2019-05-30T03:06:33.461Z,8.72
2019-05-30T03:09:03.824Z,8.71
2019-05-30T03:11:32.910Z,8.70
2019-05-30T03:14:04.466Z,8.71
2019-05-30T03:16:33.052Z,8.70
2019-05-30T03:19:01.926Z,8.71
2019-05-30T03:21:30.836Z,8.70
2019-05-30T03:24:02.597Z,8.69
2019-05-30T03:26:30.841Z,8.70
2019-05-30T03:28:59.432Z,8.69
2019-05-30T03:31:30.525Z,8.70
2019-05-30T03:34:00.781Z,8.72
2019-05-30T03:36:31.787Z,8.75
2019-05-30T03:38:59.256Z,8.76
2019-05-30T03:41:27.631Z,8.78
2019-05-30T03:43:56.118Z,8.82
2019-05-30T03:46:27.574Z,8.85
2019-05-30T03:48:59.192Z,8.88
2019-05-30T03:51:29.992Z,8.92
2019-05-30T03:53:59.337Z,8.92
2019-05-30T03:56:42.434Z,8.95
2019-05-30T03:59:23.209Z,8.97
2019-05-30T04:02:08.972Z,9.02
2019-05-30T04:04:46.078Z,9.05
2019-05-30T04:07:19.457Z,9.10
2019-05-30T04:09:49.460Z,9.15
2019-05-30T04:12:26.190Z,9.19
2019-05-30T04:14:57.663Z,9.27
2019-05-30T04:17:26.042Z,9.36
2019-05-30T04:19:54.694Z,9.46
2019-05-30T04:22:23.072Z,9.54
2019-05-30T04:24:51.463Z,9.64
2019-05-30T04:27:19.985Z,9.72
2019-05-30T04:29:48.374Z,9.82
2019-05-30T04:32:18.471Z,9.93
2019-05-30T04:34:46.872Z,10.03
2019-05-30T04:37:17.039Z,10.13
2019-05-30T04:40:05.069Z,10.22
2019-05-30T04:42:33.503Z,10.31
2019-05-30T04:45:01.950Z,10.41
2019-05-30T04:47:30.379Z,10.49
2019-05-30T04:49:58.779Z,10.50
2019-05-30T04:52:27.222Z,10.68
2019-05-30T04:54:55.639Z,10.79
2019-05-30T04:57:27.140Z,10.88
2019-05-30T04:59:57.161Z,10.95
2019-05-30T05:02:25.545Z,11.02
2019-05-30T05:04:53.969Z,11.14
2019-05-30T05:07:22.361Z,11.27
2019-05-30T05:09:50.763Z,11.26
2019-05-30T05:12:20.394Z,11.50
2019-05-30T05:14:50.513Z,11.59
2019-05-30T05:17:18.949Z,11.72
2019-05-30T05:19:47.350Z,11.82
2019-05-30T05:22:16.950Z,11.88
2019-05-30T05:24:45.832Z,11.92
2019-05-30T05:27:15.456Z,11.98
2019-05-30T05:29:44.209Z,12.04
2019-05-30T05:32:12.597Z,12.09
2019-05-30T05:34:41.000Z,12.14
2019-05-30T05:37:09.377Z,12.26
2019-05-30T05:39:37.754Z,12.35
2019-05-30T05:42:06.159Z,12.43
2019-05-30T05:44:34.574Z,12.53
2019-05-30T05:47:03.076Z,12.62
2019-05-30T05:49:31.812Z,12.72
2019-05-30T05:52:00.215Z,12.66
2019-05-30T05:54:29.241Z,12.91
2019-05-30T05:56:57.715Z,12.98
2019-05-30T05:59:26.129Z,13.09
2019-05-30T06:01:56.046Z,13.24
2019-05-30T06:04:25.260Z,13.40
2019-05-30T06:06:54.147Z,13.54
2019-05-30T06:09:22.732Z,13.64
2019-05-30T06:11:51.103Z,13.78
2019-05-30T06:14:19.911Z,13.86
2019-05-30T06:16:48.583Z,13.96
2019-05-30T06:19:17.220Z,14.11
2019-05-30T06:21:53.942Z,14.20
2019-05-30T06:24:17.538Z,14.33
2019-05-30T06:26:46.401Z,14.45
2019-05-30T06:29:14.819Z,14.60
2019-05-30T06:31:43.213Z,14.62
2019-05-30T06:34:11.666Z,14.84
2019-05-30T06:36:40.014Z,14.95
2019-05-30T06:39:09.555Z,15.09
2019-05-30T06:41:37.942Z,15.23
2019-05-30T06:44:06.339Z,15.36
2019-05-30T06:46:34.727Z,15.52
2019-05-30T06:49:03.393Z,15.64
2019-05-30T06:51:33.384Z,15.78
2019-05-30T06:54:01.786Z,15.95
2019-05-30T06:56:31.485Z,16.09
2019-05-30T06:58:59.976Z,16.33
2019-05-30T07:01:30.164Z,16.42
2019-05-30T07:03:58.676Z,16.57
2019-05-30T07:06:29.635Z,16.57
2019-05-30T07:08:58.829Z,16.70
2019-05-30T07:11:27.321Z,16.87
2019-05-30T07:13:55.752Z,17.06
2019-05-30T07:16:25.271Z,17.20
2019-05-30T07:18:54.219Z,17.22
2019-05-30T07:21:23.545Z,17.26
2019-05-30T07:23:54.162Z,17.42
2019-05-30T07:26:23.737Z,17.55
2019-05-30T07:28:52.678Z,17.72
2019-05-30T07:31:21.065Z,17.88
2019-05-30T07:33:49.561Z,17.96
2019-05-30T07:36:17.955Z,18.07
2019-05-30T07:38:46.530Z,18.28
2019-05-30T07:41:14.920Z,18.43
2019-05-30T07:43:43.320Z,18.45
2019-05-30T07:46:11.738Z,18.60
2019-05-30T07:48:40.227Z,18.86
2019-05-30T07:51:10.141Z,19.02
2019-05-30T07:53:39.147Z,19.32
2019-05-30T07:56:07.695Z,19.31
2019-05-30T07:58:37.317Z,19.63
2019-05-30T08:01:06.010Z,19.82
2019-05-30T08:03:34.774Z,20.17
2019-05-30T08:06:05.056Z,20.42
2019-05-30T08:08:33.955Z,20.63
2019-05-30T08:11:09.352Z,20.82
2019-05-30T08:13:33.148Z,20.92
2019-05-30T08:16:03.371Z,20.77
2019-05-30T08:18:31.867Z,20.91
2019-05-30T08:21:00.350Z,20.96
2019-05-30T08:23:29.967Z,21.04
2019-05-30T08:26:00.306Z,21.20
2019-05-30T08:28:28.884Z,21.28
2019-05-30T08:30:57.882Z,21.42
2019-05-30T08:33:26.290Z,21.53
2019-05-30T08:35:57.942Z,21.60
2019-05-30T08:38:26.324Z,21.73
2019-05-30T08:40:54.723Z,21.91
2019-05-30T08:43:23.570Z,21.93
2019-05-30T08:45:51.980Z,22.05
2019-05-30T08:48:20.386Z,22.23
2019-05-30T08:50:48.789Z,22.21
2019-05-30T08:53:17.372Z,22.26
2019-05-30T08:55:45.797Z,22.29
2019-05-30T08:58:14.215Z,22.26
2019-05-30T09:00:42.659Z,22.32
2019-05-30T09:03:11.031Z,22.45
2019-05-30T09:05:57.254Z,22.63
2019-05-30T09:08:11.188Z,22.73
2019-05-30T09:10:42.559Z,22.82
2019-05-30T09:13:11.546Z,22.89
2019-05-30T09:15:42.892Z,23.16
2019-05-30T09:18:11.530Z,22.87
2019-05-30T09:20:41.728Z,23.08
2019-05-30T09:23:10.209Z,23.18
2019-05-30T09:25:39.943Z,23.30
2019-05-30T09:28:08.870Z,23.15
2019-05-30T09:30:39.352Z,23.19
2019-05-30T09:33:07.510Z,23.25
2019-05-30T09:35:35.935Z,23.20
2019-05-30T09:38:04.666Z,23.25
2019-05-30T09:40:34.660Z,23.40
2019-05-30T09:43:03.063Z,23.61
2019-05-30T09:45:32.619Z,23.70
2019-05-30T09:48:01.200Z,23.94
2019-05-30T09:50:29.605Z,23.99
2019-05-30T09:52:57.988Z,24.14
2019-05-30T09:55:27.991Z,24.31
2019-05-30T09:57:57.993Z,24.38
2019-05-30T10:00:26.575Z,23.92
2019-05-30T10:02:56.608Z,23.38
2019-05-30T10:05:25.226Z,23.43
2019-05-30T10:07:53.596Z,23.66
2019-05-30T10:10:22.003Z,23.99
2019-05-30T10:12:50.965Z,23.92
2019-05-30T10:15:20.208Z,24.08
2019-05-30T10:17:52.418Z,24.10
2019-05-30T10:20:23.549Z,24.32
2019-05-30T10:22:53.868Z,24.48
2019-05-30T10:25:22.577Z,24.67
2019-05-30T10:27:52.665Z,24.88
2019-05-30T10:30:22.392Z,24.91
2019-05-30T10:32:51.957Z,24.91
2019-05-30T10:35:21.309Z,24.79
2019-05-30T10:37:50.912Z,25.05
2019-05-30T10:40:19.966Z,25.30
2019-05-30T10:42:49.559Z,25.45
2019-05-30T10:45:19.451Z,25.39
2019-05-30T10:47:49.308Z,25.97
2019-05-30T10:50:19.940Z,26.18
2019-05-30T10:52:49.449Z,25.85
2019-05-30T10:55:19.723Z,25.32
2019-05-30T10:57:48.683Z,24.99
2019-05-30T11:00:21.210Z,25.07
2019-05-30T11:02:51.065Z,25.21
2019-05-30T11:05:20.901Z,25.50
2019-05-30T11:08:07.120Z,25.67
2019-05-30T11:10:37.974Z,26.09
2019-05-30T11:13:09.926Z,26.44
2019-05-30T11:15:38.464Z,26.76
2019-05-30T11:18:07.049Z,26.71
2019-05-30T11:20:35.436Z,26.35
2019-05-30T11:23:06.494Z,26.15
2019-05-30T11:25:35.030Z,26.50
2019-05-30T11:28:05.873Z,27.14
2019-05-30T11:30:34.263Z,27.69
2019-05-30T11:33:02.749Z,27.84
2019-05-30T11:35:32.500Z,27.35
2019-05-30T11:38:02.694Z,26.95
2019-05-30T11:40:31.116Z,26.71
2019-05-30T11:43:00.059Z,26.72
2019-05-30T11:45:28.645Z,26.54
2019-05-30T11:47:58.081Z,26.50
2019-05-30T11:50:27.369Z,26.51
2019-05-30T11:52:55.956Z,26.96
2019-05-30T11:55:24.325Z,26.92
2019-05-30T11:57:54.542Z,26.94
2019-05-30T12:00:23.011Z,27.08
2019-05-30T12:02:52.210Z,27.28
2019-05-30T12:05:21.544Z,27.15
2019-05-30T12:07:50.729Z,26.87
2019-05-30T12:10:20.393Z,26.16
2019-05-30T12:12:48.804Z,26.22
2019-05-30T12:15:19.955Z,26.12
2019-05-30T12:17:48.448Z,25.71
2019-05-30T12:20:17.923Z,25.53
2019-05-30T12:22:46.353Z,25.12
2019-05-30T12:25:15.439Z,24.83
2019-05-30T12:27:43.807Z,24.87
2019-05-30T12:30:13.958Z,24.99
2019-05-30T12:32:42.525Z,25.02
2019-05-30T12:35:13.997Z,24.90
2019-05-30T12:37:55.166Z,24.72
2019-05-30T12:40:14.934Z,24.77
2019-05-30T12:42:43.338Z,24.73
2019-05-30T12:45:13.913Z,24.99
2019-05-30T12:47:43.869Z,25.21
2019-05-30T12:50:16.804Z,25.46
2019-05-30T12:52:45.565Z,25.61
2019-05-30T12:55:14.193Z,25.66
2019-05-30T12:57:42.611Z,25.92
2019-05-30T13:00:18.635Z,26.09
2019-05-30T13:02:48.244Z,26.08
2019-05-30T13:05:16.825Z,25.99
2019-05-30T13:07:45.251Z,25.88
2019-05-30T13:10:14.074Z,25.73
2019-05-30T13:12:42.568Z,25.53
2019-05-30T13:15:11.361Z,25.42
2019-05-30T13:17:39.909Z,25.35
2019-05-30T13:20:10.641Z,25.46
2019-05-30T13:22:39.162Z,25.69
2019-05-30T13:25:08.405Z,25.84
2019-05-30T13:27:37.555Z,25.94
2019-05-30T13:30:08.167Z,25.89
2019-05-30T13:32:36.568Z,25.73
2019-05-30T13:35:09.236Z,25.58
2019-05-30T13:37:37.709Z,25.75
2019-05-30T13:40:23.595Z,26.04
2019-05-30T13:42:42.311Z,26.16
2019-05-30T13:45:11.402Z,26.18
2019-05-30T13:47:39.796Z,25.98
2019-05-30T13:50:13.421Z,25.83
2019-05-30T13:52:41.362Z,25.82
2019-05-30T13:55:10.389Z,25.84
2019-05-30T13:57:40.378Z,25.61
2019-05-30T14:00:11.909Z,25.45
2019-05-30T14:02:40.622Z,25.51
2019-05-30T14:05:10.633Z,25.61
2019-05-30T14:07:40.677Z,25.66
2019-05-30T14:10:10.857Z,25.64
2019-05-30T14:12:41.546Z,26.03
2019-05-30T14:15:14.244Z,26.32
2019-05-30T14:17:42.302Z,26.56
2019-05-30T14:20:13.396Z,26.42
2019-05-30T14:22:41.824Z,26.23
2019-05-30T14:25:12.837Z,26.06
2019-05-30T14:27:41.792Z,25.92
2019-05-30T14:30:13.102Z,25.75
2019-05-30T14:32:41.706Z,25.64
2019-05-30T14:35:13.286Z,25.75
2019-05-30T14:37:41.108Z,25.89
2019-05-30T14:40:12.902Z,26.30
2019-05-30T14:42:41.934Z,26.65
2019-05-30T14:45:12.689Z,26.62
2019-05-30T14:47:41.102Z,26.60
2019-05-30T14:50:13.186Z,26.32
2019-05-30T14:52:41.895Z,26.01
2019-05-30T14:55:13.302Z,25.72
2019-05-30T14:57:41.771Z,25.44
2019-05-30T15:00:14.032Z,25.18
2019-05-30T15:02:43.359Z,25.00
2019-05-30T15:05:13.729Z,24.88
2019-05-30T15:07:43.150Z,24.65
2019-05-30T15:10:12.945Z,24.69
2019-05-30T15:12:42.920Z,24.53
2019-05-30T15:15:14.475Z,24.36
2019-05-30T15:17:43.903Z,24.08
2019-05-30T15:20:13.959Z,23.96
2019-05-30T15:22:43.585Z,23.99
2019-05-30T15:25:17.440Z,23.99
2019-05-30T15:27:45.922Z,23.96
2019-05-30T15:30:15.063Z,23.94
2019-05-30T15:32:44.053Z,23.84
2019-05-30T15:35:15.232Z,23.87
2019-05-30T15:37:44.495Z,23.86
2019-05-30T15:40:13.161Z,23.89
2019-05-30T15:42:41.817Z,23.97
2019-05-30T15:45:12.015Z,24.16
2019-05-30T15:47:40.918Z,24.18
2019-05-30T15:50:11.953Z,24.15
2019-05-30T15:52:41.583Z,24.30
2019-05-30T15:55:11.357Z,24.36
2019-05-30T15:57:40.135Z,24.32
2019-05-30T16:00:12.125Z,24.26
2019-05-30T16:02:41.444Z,23.93
2019-05-30T16:05:10.665Z,23.65
2019-05-30T16:07:39.140Z,23.41
2019-05-30T16:10:08.463Z,23.29
2019-05-30T16:12:36.843Z,23.28
2019-05-30T16:15:09.037Z,23.22
2019-05-30T16:17:37.484Z,23.14
2019-05-30T16:20:09.076Z,23.08
2019-05-30T16:22:37.455Z,22.87
2019-05-30T16:25:08.020Z,22.93
2019-05-30T16:27:36.391Z,22.93
2019-05-30T16:30:10.460Z,22.96
2019-05-30T16:32:40.824Z,22.98
2019-05-30T16:35:11.192Z,22.94
2019-05-30T16:37:39.575Z,22.93
2019-05-30T16:40:09.926Z,22.90
2019-05-30T16:42:38.431Z,22.85
2019-05-30T16:45:09.007Z,22.72
2019-05-30T16:47:37.918Z,22.49
2019-05-30T16:50:08.015Z,22.53
2019-05-30T16:52:37.256Z,22.43
2019-05-30T16:55:07.859Z,22.40
2019-05-30T16:57:37.003Z,22.42
2019-05-30T17:00:08.715Z,22.50
2019-05-30T17:02:37.243Z,22.56
2019-05-30T17:05:09.961Z,22.48
2019-05-30T17:07:38.739Z,22.66
2019-05-30T17:10:22.274Z,22.70
2019-05-30T17:12:39.164Z,22.77
2019-05-30T17:15:09.399Z,22.72
2019-05-30T17:17:37.906Z,22.69
2019-05-30T17:20:08.516Z,22.67
2019-05-30T17:22:36.937Z,22.58
2019-05-30T17:25:09.937Z,22.52
2019-05-30T17:27:38.437Z,22.54
2019-05-30T17:30:11.077Z,22.55
2019-05-30T17:32:39.666Z,22.56
2019-05-30T17:35:10.056Z,22.43
2019-05-30T17:37:38.434Z,22.28
2019-05-30T17:40:07.655Z,22.17
2019-05-30T17:42:36.262Z,22.09
2019-05-30T17:45:07.684Z,21.98
2019-05-30T17:47:36.082Z,21.98
2019-05-30T17:50:09.808Z,21.94
2019-05-30T17:52:41.179Z,21.86
2019-05-30T17:55:10.333Z,21.75
2019-05-30T17:57:38.739Z,21.65
2019-05-30T18:00:12.924Z,21.58
2019-05-30T18:02:42.144Z,21.56
2019-05-30T18:05:12.954Z,21.53
2019-05-30T18:07:41.453Z,21.52
2019-05-30T18:10:10.816Z,21.51
2019-05-30T18:12:39.204Z,21.49
2019-05-30T18:15:10.349Z,21.38
2019-05-30T18:17:38.730Z,21.26
2019-05-30T18:20:09.150Z,21.15
2019-05-30T18:22:37.808Z,21.09
2019-05-30T18:25:24.170Z,20.98
2019-05-30T18:27:52.851Z,20.85
2019-05-30T18:30:24.280Z,20.72
2019-05-30T18:32:52.722Z,20.61
2019-05-30T18:35:24.192Z,20.53
2019-05-30T18:37:52.994Z,20.43
2019-05-30T18:40:33.310Z,20.24
2019-05-30T18:43:03.444Z,20.26
2019-05-30T18:45:37.742Z,20.15
2019-05-30T18:48:06.840Z,20.05
2019-05-30T18:50:35.725Z,19.93
2019-05-30T18:53:05.180Z,19.86
2019-05-30T18:55:33.573Z,19.70
2019-05-30T18:58:01.974Z,19.73
2019-05-30T19:00:31.219Z,19.59
2019-05-30T19:03:00.092Z,19.59
2019-05-30T19:05:30.620Z,19.51
2019-05-30T19:07:59.117Z,19.45
2019-05-30T19:10:29.944Z,19.38
2019-05-30T19:12:58.528Z,19.30
2019-05-30T19:15:29.734Z,19.21
2019-05-30T19:17:57.481Z,19.03
2019-05-30T19:20:27.751Z,19.05
2019-05-30T19:22:56.101Z,18.97
2019-05-30T19:25:24.533Z,18.90
2019-05-30T19:27:52.973Z,18.86
2019-05-30T19:30:21.638Z,18.81
2019-05-30T19:32:52.781Z,18.74
2019-05-30T19:35:21.248Z,18.68
2019-05-30T19:37:49.742Z,18.61
2019-05-30T19:40:18.173Z,18.53
2019-05-30T19:42:46.551Z,18.45
2019-05-30T19:45:18.466Z,18.38
2019-05-30T19:47:46.856Z,18.33
2019-05-30T19:50:15.731Z,18.26
2019-05-30T19:52:46.852Z,18.09
2019-05-30T19:55:14.543Z,18.07
2019-05-30T19:57:42.982Z,17.94
2019-05-30T20:00:12.765Z,17.81
2019-05-30T20:02:41.253Z,17.69
2019-05-30T20:05:10.216Z,17.58
2019-05-30T20:07:39.003Z,17.47
2019-05-30T20:10:09.668Z,17.35
2019-05-30T20:12:39.055Z,17.24
2019-05-30T20:15:09.763Z,17.13
2019-05-30T20:17:39.900Z,17.02
2019-05-30T20:20:09.818Z,16.83
2019-05-30T20:22:38.458Z,16.83
2019-05-30T20:25:08.496Z,16.74
2019-05-30T20:27:36.999Z,16.69
2019-05-30T20:30:07.828Z,16.60
2019-05-30T20:32:36.531Z,16.54
2019-05-30T20:35:06.870Z,16.46
2019-05-30T20:37:36.627Z,16.29
2019-05-30T20:40:09.985Z,16.29
2019-05-30T20:42:39.007Z,16.15
2019-05-30T20:45:10.059Z,16.15
2019-05-30T20:47:40.567Z,16.08
2019-05-30T20:50:10.851Z,16.02
2019-05-30T20:52:42.275Z,15.94
2019-05-30T20:55:09.560Z,15.87
2019-05-30T20:57:38.366Z,15.80
2019-05-30T21:00:11.111Z,15.74
2019-05-30T21:02:40.761Z,15.67
2019-05-30T21:05:10.429Z,15.62
2019-05-30T21:07:41.936Z,15.57
2019-05-30T21:10:10.979Z,15.50
2019-05-30T21:12:43.507Z,15.45
2019-05-30T21:15:09.750Z,15.42
2019-05-30T21:17:38.491Z,15.37
2019-05-30T21:20:11.321Z,15.33
2019-05-30T21:22:42.290Z,15.29
2019-05-30T21:25:11.892Z,15.25
2019-05-30T21:27:40.854Z,15.21
2019-05-30T21:30:09.699Z,15.15
2019-05-30T21:32:39.773Z,15.11
2019-05-30T21:35:10.176Z,15.07
2019-05-30T21:37:39.733Z,15.05
2019-05-30T21:40:09.904Z,15.02
2019-05-30T21:42:55.720Z,14.98
2019-05-30T21:45:09.345Z,14.93
2019-05-30T21:47:38.671Z,14.87
2019-05-30T21:50:08.606Z,14.83
2019-05-30T21:52:37.076Z,14.69
2019-05-30T21:55:06.602Z,14.74
2019-05-30T21:57:35.161Z,14.61
2019-05-30T22:00:10.092Z,14.67
2019-05-30T22:02:38.490Z,14.53
2019-05-30T22:05:08.593Z,14.58
2019-05-30T22:07:37.188Z,14.54
2019-05-30T22:10:06.101Z,14.52
2019-05-30T22:12:34.502Z,14.48
2019-05-30T22:15:03.322Z,14.46
2019-05-30T22:17:31.748Z,14.42
2019-05-30T22:20:00.231Z,14.38
2019-05-30T22:22:28.623Z,14.35
2019-05-30T22:24:57.071Z,14.33
2019-05-30T22:27:25.504Z,14.31
2019-05-30T22:29:55.784Z,14.18
2019-05-30T22:32:24.353Z,14.21
2019-05-30T22:34:52.961Z,14.24
2019-05-30T22:37:23.516Z,14.19
2019-05-30T22:39:53.025Z,14.16
2019-05-30T22:42:21.509Z,14.14
2019-05-30T22:44:50.204Z,14.15
2019-05-30T22:47:18.674Z,14.26
2019-05-30T22:49:47.095Z,14.28
2019-05-30T22:52:15.481Z,14.24
2019-05-30T22:54:45.080Z,14.22
2019-05-30T22:57:14.272Z,14.16
2019-05-30T22:59:42.919Z,14.03
2019-05-30T23:02:12.835Z,14.05
2019-05-30T23:04:41.326Z,13.97
2019-05-30T23:07:09.756Z,13.90
2019-05-30T23:09:38.150Z,13.85
2019-05-30T23:12:06.553Z,13.81
2019-05-30T23:14:34.959Z,13.76
2019-05-30T23:17:04.446Z,13.73
2019-05-30T23:19:32.845Z,13.58
2019-05-30T23:22:01.250Z,13.66
2019-05-30T23:24:29.695Z,13.61
2019-05-30T23:26:58.080Z,13.57
2019-05-30T23:29:26.515Z,13.53
2019-05-30T23:31:56.096Z,13.48
2019-05-30T23:34:24.876Z,13.43
2019-05-30T23:36:54.481Z,13.37
2019-05-30T23:39:23.213Z,13.33
2019-05-30T23:41:52.727Z,13.29
2019-05-30T23:44:21.289Z,13.26
2019-05-30T23:46:49.728Z,13.24
2019-05-30T23:49:18.113Z,13.21
2019-05-30T23:51:46.537Z,13.20
2019-05-30T23:54:14.998Z,13.20
2019-05-30T23:56:43.402Z,13.19
2019-05-30T23:59:11.785Z,13.17
